KLNR/LNR METAR and TAF weather

Enter ICAO airport designator
Station Type Date Time Source
KLNR METAR 2021/04/14 18:56 UTC NOAA

KLNR 141856Z AUTO 32009KT 10SM BKN034 OVC041 05/M03 A3011 RMK AO2 SLP197 T00501028


Station Type Date Time Source
KLNR Decoded METAR 2021/04/14 18:56 UTC NOAA

LONE ROCK TRI-COUNTY REG, WI, United States (KLNR) 43-13N 090-11W 217M
Apr 14, 2021 - 02:56 PM EDT / 2021.04.14 1856 UTC
Wind: from the NW (320 degrees) at 10 MPH (9 KT):0
Visibility: 10 mile(s):0
Sky conditions: overcast
Temperature: 41.0 F (5.0 C)
Dew Point: 27.0 F (-2.8 C)
Relative Humidity: 57%
Pressure (altimeter): 30.11 in. Hg (1019 hPa)
ob: KLNR 141856Z AUTO 32009KT 10SM BKN034 OVC041 05/M03 A3011 RMK AO2 SLP197 T00501028
cycle: 19

Station Type Date Time Source
KLNR TAF UTC NOAA

Error!

Example: see airport list